createdAt,value
2018-06-15T00:00:55.041Z,17.1
2018-06-15T00:01:56.441Z,17.1
2018-06-15T00:02:57.834Z,17.2
2018-06-15T00:03:59.222Z,17.2
2018-06-15T00:05:00.613Z,17.2
2018-06-15T00:06:02.002Z,17.2
2018-06-15T00:07:03.393Z,17.2
2018-06-15T00:08:04.787Z,17.2
2018-06-15T00:09:06.178Z,17.2
2018-06-15T00:10:07.575Z,17.3
2018-06-15T00:11:08.967Z,17.3
2018-06-15T00:12:10.357Z,17.3
2018-06-15T00:13:11.750Z,17.3
2018-06-15T00:14:13.140Z,17.3
2018-06-15T00:15:14.538Z,17.3
2018-06-15T00:16:15.928Z,17.3
2018-06-15T00:17:17.325Z,17.2
2018-06-15T00:18:18.715Z,17.3
2018-06-15T00:19:20.106Z,17.3
2018-06-15T00:20:21.500Z,17.3
2018-06-15T00:21:22.890Z,17.4
2018-06-15T00:22:24.287Z,17.3
2018-06-15T00:23:25.678Z,17.4
2018-06-15T00:24:27.072Z,17.3
2018-06-15T00:25:28.465Z,17.4
2018-06-15T00:26:29.856Z,17.4
2018-06-15T00:27:31.246Z,17.4
2018-06-15T00:28:32.639Z,17.3
2018-06-15T00:29:34.031Z,17.4
2018-06-15T00:30:35.423Z,17.4
2018-06-15T00:31:36.817Z,17.4
2018-06-15T00:32:38.205Z,17.4
2018-06-15T00:33:39.597Z,17.4
2018-06-15T00:34:40.987Z,17.4
2018-06-15T00:35:42.380Z,17.4
2018-06-15T00:36:43.773Z,17.4
2018-06-15T00:37:45.165Z,17.4
2018-06-15T00:38:46.557Z,17.4
2018-06-15T00:39:48.042Z,17.4
2018-06-15T00:40:49.433Z,17.5
2018-06-15T00:41:50.820Z,17.4
2018-06-15T00:42:52.210Z,17.5
2018-06-15T00:43:53.606Z,17.4
2018-06-15T00:44:54.997Z,17.5
2018-06-15T00:45:56.389Z,17.4
2018-06-15T00:46:57.781Z,17.4
2018-06-15T00:47:59.168Z,17.5
2018-06-15T00:49:00.566Z,17.5
2018-06-15T00:50:01.958Z,17.4
2018-06-15T00:51:03.349Z,17.5
2018-06-15T00:52:04.741Z,17.4
2018-06-15T00:53:06.138Z,17.5
2018-06-15T00:54:07.524Z,17.4
2018-06-15T00:55:08.911Z,17.5
2018-06-15T00:56:10.303Z,17.5
2018-06-15T00:57:11.693Z,17.5
2018-06-15T00:58:13.086Z,17.5
2018-06-15T00:59:14.482Z,17.5
2018-06-15T01:00:15.878Z,17.5
2018-06-15T01:01:17.272Z,17.5
2018-06-15T01:02:18.661Z,17.4
2018-06-15T01:03:20.055Z,17.5
2018-06-15T01:04:21.448Z,17.5
2018-06-15T01:05:22.842Z,17.5
2018-06-15T01:06:24.251Z,17.5
2018-06-15T01:07:25.643Z,17.5
2018-06-15T01:08:27.037Z,17.6
2018-06-15T01:09:28.435Z,17.6
2018-06-15T01:10:29.826Z,17.4
2018-06-15T01:11:31.214Z,17.5
2018-06-15T01:12:32.609Z,17.4
2018-06-15T01:13:34.002Z,17.4
2018-06-15T01:14:35.396Z,17.5
2018-06-15T01:15:36.788Z,17.4
2018-06-15T01:16:38.177Z,17.5
2018-06-15T01:17:39.565Z,17.4
2018-06-15T01:18:40.960Z,17.4
2018-06-15T01:19:42.348Z,17.4
2018-06-15T01:20:43.777Z,17.4
2018-06-15T01:21:45.136Z,17.5
2018-06-15T01:22:46.523Z,17.5
2018-06-15T01:23:47.914Z,17.5
2018-06-15T01:24:49.305Z,17.5
2018-06-15T01:25:50.696Z,17.5
2018-06-15T01:26:52.088Z,17.5
2018-06-15T01:27:53.533Z,17.5
2018-06-15T01:28:55.019Z,17.4
2018-06-15T01:29:56.409Z,17.4
2018-06-15T01:30:57.799Z,17.4
2018-06-15T01:31:59.196Z,17.4
2018-06-15T01:33:00.587Z,17.4
2018-06-15T01:34:01.977Z,17.3
2018-06-15T01:35:03.369Z,17.3
2018-06-15T01:36:04.784Z,17.4
2018-06-15T01:37:06.173Z,17.4
2018-06-15T01:38:07.565Z,17.4
2018-06-15T01:39:08.957Z,17.3
2018-06-15T01:40:10.350Z,17.3
2018-06-15T01:41:11.745Z,17.2
2018-06-15T01:42:13.132Z,17.2
2018-06-15T01:43:14.527Z,17.3
2018-06-15T01:44:15.919Z,17.2
2018-06-15T01:45:17.312Z,17.2
2018-06-15T01:46:18.698Z,17.2
2018-06-15T01:47:20.095Z,17.2
2018-06-15T01:48:21.487Z,17.2
2018-06-15T01:49:22.880Z,17.1
2018-06-15T01:50:24.272Z,17.1
2018-06-15T01:51:25.663Z,17.1
2018-06-15T01:52:27.052Z,17.1
2018-06-15T01:53:28.446Z,17.2
2018-06-15T01:54:29.835Z,17.2
2018-06-15T01:55:31.225Z,17.1
2018-06-15T01:56:32.620Z,17.1
2018-06-15T01:57:34.014Z,17.2
2018-06-15T01:58:35.403Z,17.2
2018-06-15T01:59:36.797Z,17.0
2018-06-15T02:00:38.188Z,17.0
2018-06-15T02:01:39.580Z,17.1
2018-06-15T02:02:40.970Z,17.0
2018-06-15T02:03:42.367Z,17.0
2018-06-15T02:04:43.761Z,17.0
2018-06-15T02:05:45.151Z,17.1
2018-06-15T02:06:46.544Z,17.1
2018-06-15T02:07:47.943Z,17.0
2018-06-15T02:08:49.325Z,17.0
2018-06-15T02:09:50.715Z,17.0
2018-06-15T02:10:52.107Z,17.0
2018-06-15T02:11:53.505Z,17.0
2018-06-15T02:12:54.892Z,17.0
2018-06-15T02:13:56.280Z,16.9
2018-06-15T02:14:57.672Z,16.9
2018-06-15T02:15:59.113Z,16.9
2018-06-15T02:17:00.512Z,16.9
2018-06-15T02:18:01.905Z,16.9
2018-06-15T02:19:03.302Z,16.9
2018-06-15T02:20:04.692Z,16.9
2018-06-15T02:21:06.084Z,16.8
2018-06-15T02:22:07.477Z,16.9
2018-06-15T02:23:08.869Z,16.8
2018-06-15T02:24:10.265Z,16.8
2018-06-15T02:25:11.657Z,16.8
2018-06-15T02:26:13.053Z,16.8
2018-06-15T02:27:14.446Z,16.8
2018-06-15T02:28:15.838Z,16.8
2018-06-15T02:29:17.228Z,16.8
2018-06-15T02:30:18.620Z,16.8
2018-06-15T02:31:20.015Z,16.8
2018-06-15T02:32:21.407Z,16.8
2018-06-15T02:33:22.803Z,16.9
2018-06-15T02:34:24.195Z,16.9
2018-06-15T02:35:25.588Z,16.9
2018-06-15T02:36:26.982Z,16.9
2018-06-15T02:37:28.377Z,16.9
2018-06-15T02:38:29.772Z,16.9
2018-06-15T02:39:31.164Z,16.9
2018-06-15T02:40:32.561Z,16.9
2018-06-15T02:41:33.956Z,17.0
2018-06-15T02:42:35.344Z,17.0
2018-06-15T02:43:36.737Z,17.0
2018-06-15T02:44:38.135Z,17.0
2018-06-15T02:45:39.530Z,17.1
2018-06-15T02:46:40.924Z,17.0
2018-06-15T02:47:42.317Z,17.0
2018-06-15T02:48:43.709Z,17.1
2018-06-15T02:49:45.100Z,17.0
2018-06-15T02:50:46.496Z,17.0
2018-06-15T02:51:47.892Z,17.1
2018-06-15T02:52:49.299Z,17.1
2018-06-15T02:53:50.684Z,17.2
2018-06-15T02:54:52.079Z,17.1
2018-06-15T02:55:53.472Z,17.1
2018-06-15T02:56:54.859Z,17.1
2018-06-15T02:57:56.253Z,17.1
2018-06-15T02:58:57.664Z,17.2
2018-06-15T02:59:59.039Z,17.2
2018-06-15T03:01:00.441Z,17.2
2018-06-15T03:02:01.836Z,17.1
2018-06-15T03:03:03.232Z,17.1
2018-06-15T03:04:04.656Z,17.2
2018-06-15T03:05:06.068Z,17.1
2018-06-15T03:06:07.465Z,17.2
2018-06-15T03:07:08.867Z,17.2
2018-06-15T03:08:10.264Z,17.2
2018-06-15T03:09:11.657Z,17.2
2018-06-15T03:10:13.053Z,17.1
2018-06-15T03:11:14.449Z,17.2
2018-06-15T03:12:15.863Z,17.1
2018-06-15T03:13:17.242Z,17.1
2018-06-15T03:14:18.642Z,17.1
2018-06-15T03:15:20.033Z,17.1
2018-06-15T03:16:21.436Z,17.1
2018-06-15T03:17:22.821Z,17.2
2018-06-15T03:18:24.217Z,17.2
2018-06-15T03:19:25.613Z,17.1
2018-06-15T03:20:27.009Z,17.1
2018-06-15T03:21:28.403Z,17.2
2018-06-15T03:22:29.801Z,17.1
2018-06-15T03:23:31.197Z,17.2
2018-06-15T03:24:32.595Z,17.2
2018-06-15T03:25:33.988Z,17.2
2018-06-15T03:26:35.381Z,17.2
2018-06-15T03:27:36.778Z,17.3
2018-06-15T03:28:38.174Z,17.3
2018-06-15T03:29:39.568Z,17.3
2018-06-15T03:30:40.967Z,17.4
2018-06-15T03:31:42.362Z,17.4
2018-06-15T03:32:43.758Z,17.3
2018-06-15T03:33:45.155Z,17.3
2018-06-15T03:34:46.544Z,17.3
2018-06-15T03:35:47.941Z,17.4
2018-06-15T03:36:49.335Z,17.4
2018-06-15T03:37:50.728Z,17.3
2018-06-15T03:38:52.127Z,17.4
2018-06-15T03:39:53.514Z,17.4
2018-06-15T03:40:54.907Z,17.4
2018-06-15T03:41:56.300Z,17.4
2018-06-15T03:42:57.709Z,17.3
2018-06-15T03:43:59.106Z,17.4
2018-06-15T03:45:00.503Z,17.4
2018-06-15T03:46:01.899Z,17.4
2018-06-15T03:47:03.343Z,17.4
2018-06-15T03:48:04.739Z,17.4
2018-06-15T03:49:06.134Z,17.3
2018-06-15T03:50:07.529Z,17.4
2018-06-15T03:51:08.931Z,17.4
2018-06-15T03:52:10.421Z,17.3
2018-06-15T03:53:11.816Z,17.4
2018-06-15T03:54:13.210Z,17.4
2018-06-15T03:55:14.609Z,17.3
2018-06-15T03:56:16.011Z,17.4
2018-06-15T03:57:17.406Z,17.3
2018-06-15T03:58:18.806Z,17.5
2018-06-15T03:59:20.204Z,17.4
2018-06-15T04:00:21.599Z,17.4
2018-06-15T04:01:22.997Z,17.4
2018-06-15T04:02:24.394Z,17.4
2018-06-15T04:03:25.793Z,17.4
2018-06-15T04:04:27.189Z,17.5
2018-06-15T04:05:28.585Z,17.4
2018-06-15T04:06:29.987Z,17.4
2018-06-15T04:07:31.489Z,17.4
2018-06-15T04:08:32.828Z,17.5
2018-06-15T04:09:34.225Z,17.5
2018-06-15T04:10:35.621Z,17.4
2018-06-15T04:11:37.022Z,17.5
2018-06-15T04:12:38.415Z,17.5
2018-06-15T04:13:39.813Z,17.4
2018-06-15T04:14:41.208Z,17.4
2018-06-15T04:15:42.604Z,17.4
2018-06-15T04:16:44.002Z,17.4
2018-06-15T04:17:45.398Z,17.4
2018-06-15T04:18:46.795Z,17.6
2018-06-15T04:19:48.218Z,17.6
2018-06-15T04:20:49.589Z,17.5
2018-06-15T04:21:50.985Z,17.6
2018-06-15T04:22:52.378Z,17.6
2018-06-15T04:23:53.775Z,17.6
2018-06-15T04:24:55.175Z,17.7
2018-06-15T04:25:56.568Z,17.7
2018-06-15T04:26:57.962Z,17.7
2018-06-15T04:27:59.362Z,17.6
2018-06-15T04:29:00.759Z,17.7
2018-06-15T04:30:02.161Z,17.7
2018-06-15T04:31:03.559Z,17.7
2018-06-15T04:32:04.956Z,17.7
2018-06-15T04:33:06.354Z,17.7
2018-06-15T04:34:07.752Z,17.9
2018-06-15T04:35:09.150Z,17.9
2018-06-15T04:36:10.548Z,17.8
2018-06-15T04:37:11.942Z,17.9
2018-06-15T04:38:13.342Z,17.9
2018-06-15T04:39:14.812Z,17.8
2018-06-15T04:40:16.214Z,17.9
2018-06-15T04:41:17.610Z,17.9
2018-06-15T04:42:19.008Z,17.9
2018-06-15T04:43:20.402Z,17.9
2018-06-15T04:44:21.800Z,17.9
2018-06-15T04:45:23.197Z,17.9
2018-06-15T04:46:24.592Z,18.0
2018-06-15T04:47:25.989Z,18.0
2018-06-15T04:48:27.388Z,18.0
2018-06-15T04:49:28.789Z,17.9
2018-06-15T04:50:30.222Z,18.0
2018-06-15T04:51:31.604Z,18.0
2018-06-15T04:52:32.999Z,18.0
2018-06-15T04:53:34.393Z,17.9
2018-06-15T04:54:35.792Z,18.0
2018-06-15T04:55:37.192Z,18.0
2018-06-15T04:56:38.589Z,18.1
2018-06-15T04:57:40.043Z,18.1
2018-06-15T04:58:41.643Z,18.0
2018-06-15T04:59:43.027Z,18.1
2018-06-15T05:00:44.423Z,18.1
2018-06-15T05:01:45.822Z,18.1
2018-06-15T05:02:47.221Z,18.2
2018-06-15T05:03:48.628Z,18.2
2018-06-15T05:04:50.029Z,18.1
2018-06-15T05:05:51.431Z,18.2
2018-06-15T05:06:52.846Z,18.2
2018-06-15T05:07:54.246Z,18.2
2018-06-15T05:08:55.648Z,18.2
2018-06-15T05:09:57.044Z,18.3
2018-06-15T05:10:58.445Z,18.2
2018-06-15T05:11:59.845Z,18.2
2018-06-15T05:13:01.246Z,18.3
2018-06-15T05:14:02.644Z,18.2
2018-06-15T05:15:04.063Z,18.2
2018-06-15T05:16:05.460Z,18.2
2018-06-15T05:17:06.856Z,18.2
2018-06-15T05:18:08.259Z,18.3
2018-06-15T05:19:09.655Z,18.2
2018-06-15T05:20:11.056Z,18.2
2018-06-15T05:21:12.493Z,18.3
2018-06-15T05:22:13.900Z,18.2
2018-06-15T05:23:15.298Z,18.3
2018-06-15T05:24:16.696Z,18.2
2018-06-15T05:25:18.166Z,18.2
2018-06-15T05:26:19.620Z,18.3
2018-06-15T05:27:21.020Z,18.2
2018-06-15T05:28:22.418Z,18.3
2018-06-15T05:29:23.814Z,18.2
2018-06-15T05:30:25.213Z,18.3
2018-06-15T05:31:26.616Z,18.4
2018-06-15T05:32:28.015Z,18.4
2018-06-15T05:33:29.409Z,18.4
2018-06-15T05:34:30.803Z,18.4
2018-06-15T05:35:32.199Z,18.4
2018-06-15T05:36:33.599Z,18.4
2018-06-15T05:37:34.995Z,18.4
2018-06-15T05:38:36.392Z,18.4
2018-06-15T05:39:37.792Z,18.4
2018-06-15T05:40:39.188Z,18.4
2018-06-15T05:41:40.587Z,18.4
2018-06-15T05:42:42.000Z,18.3
2018-06-15T05:43:43.378Z,18.4
2018-06-15T05:44:44.777Z,18.3
2018-06-15T05:45:46.176Z,18.5
2018-06-15T05:46:47.577Z,18.5
2018-06-15T05:47:48.970Z,18.6
2018-06-15T05:48:50.367Z,18.6
2018-06-15T05:49:51.811Z,18.6
2018-06-15T05:50:53.166Z,18.7
2018-06-15T05:51:54.565Z,18.7
2018-06-15T05:52:55.968Z,18.8
2018-06-15T05:53:57.369Z,18.8
2018-06-15T05:54:58.765Z,18.9
2018-06-15T05:56:00.164Z,18.9
2018-06-15T05:57:01.560Z,19.0
2018-06-15T05:58:02.959Z,18.9
2018-06-15T05:59:04.359Z,18.9
2018-06-15T06:00:05.761Z,18.9
2018-06-15T06:01:07.161Z,18.9
2018-06-15T06:02:08.555Z,18.9
2018-06-15T06:03:09.952Z,19.0
2018-06-15T06:04:11.414Z,19.0
2018-06-15T06:05:12.747Z,19.1
2018-06-15T06:06:14.146Z,19.0
2018-06-15T06:07:15.544Z,19.1
2018-06-15T06:08:16.945Z,19.1
2018-06-15T06:09:18.351Z,19.1
2018-06-15T06:10:19.739Z,19.2
2018-06-15T06:11:21.137Z,19.2
2018-06-15T06:12:22.565Z,19.2
2018-06-15T06:13:23.977Z,19.3
2018-06-15T06:14:25.377Z,19.3
2018-06-15T06:15:26.774Z,19.3
2018-06-15T06:16:28.168Z,19.3
2018-06-15T06:17:29.561Z,19.3
2018-06-15T06:18:30.961Z,19.3
2018-06-15T06:19:32.359Z,19.3
2018-06-15T06:20:33.757Z,19.3
2018-06-15T06:21:35.155Z,19.3
2018-06-15T06:22:36.557Z,19.4
2018-06-15T06:23:37.954Z,19.5
2018-06-15T06:24:39.353Z,19.6
2018-06-15T06:25:40.748Z,19.6
2018-06-15T06:26:42.148Z,19.6
2018-06-15T06:27:43.549Z,19.6
2018-06-15T06:28:44.946Z,19.8
2018-06-15T06:29:46.347Z,19.9
2018-06-15T06:30:47.745Z,19.9
2018-06-15T06:31:49.143Z,19.9
2018-06-15T06:32:50.542Z,20.1
2018-06-15T06:33:51.941Z,20.1
2018-06-15T06:34:53.342Z,20.2
2018-06-15T06:35:54.743Z,20.1
2018-06-15T06:36:56.142Z,20.1
2018-06-15T06:37:57.590Z,20.1
2018-06-15T06:38:58.936Z,20.2
2018-06-15T06:40:00.335Z,20.1
2018-06-15T06:41:01.736Z,20.1
2018-06-15T06:42:03.133Z,20.2
2018-06-15T06:43:04.546Z,20.2
2018-06-15T06:44:05.950Z,20.1
2018-06-15T06:45:07.352Z,20.2
2018-06-15T06:46:08.751Z,20.2
2018-06-15T06:47:10.147Z,20.2
2018-06-15T06:48:11.544Z,20.3
2018-06-15T06:49:12.941Z,20.3
2018-06-15T06:50:14.337Z,20.2
2018-06-15T06:51:15.739Z,20.4
2018-06-15T06:52:17.136Z,20.4
2018-06-15T06:53:18.534Z,20.5
2018-06-15T06:54:19.928Z,20.5
2018-06-15T06:55:21.337Z,20.5
2018-06-15T06:56:22.735Z,20.6
2018-06-15T06:57:24.136Z,20.6
2018-06-15T06:58:25.601Z,20.6
2018-06-15T06:59:26.969Z,20.7
2018-06-15T07:00:28.451Z,20.7
2018-06-15T07:01:29.851Z,20.6
2018-06-15T07:02:31.252Z,20.6
2018-06-15T07:03:32.651Z,20.6
2018-06-15T07:04:34.051Z,20.6
2018-06-15T07:05:35.455Z,20.6
2018-06-15T07:06:36.883Z,20.6
2018-06-15T07:07:38.279Z,20.7
2018-06-15T07:08:39.677Z,20.7
2018-06-15T07:09:41.079Z,20.7
2018-06-15T07:10:42.480Z,20.7
2018-06-15T07:11:43.880Z,20.7
2018-06-15T07:12:45.276Z,20.7
2018-06-15T07:13:46.676Z,20.8
2018-06-15T07:14:48.076Z,20.8
2018-06-15T07:15:49.473Z,20.9
2018-06-15T07:16:50.870Z,20.9
2018-06-15T07:17:52.268Z,20.9
2018-06-15T07:18:53.669Z,20.9
2018-06-15T07:19:55.070Z,21.0
2018-06-15T07:20:56.471Z,21.0
2018-06-15T07:21:57.862Z,21.0
2018-06-15T07:22:59.266Z,21.0
2018-06-15T07:24:00.668Z,21.1
2018-06-15T07:25:02.065Z,21.2
2018-06-15T07:26:03.465Z,21.3
2018-06-15T07:27:04.864Z,21.3
2018-06-15T07:28:06.263Z,21.4
2018-06-15T07:29:07.665Z,21.6
2018-06-15T07:30:09.067Z,21.7
2018-06-15T07:31:10.459Z,21.8
2018-06-15T07:32:11.868Z,22.0
2018-06-15T07:33:13.261Z,22.1
2018-06-15T07:34:14.668Z,22.1
2018-06-15T07:35:16.067Z,22.1
2018-06-15T07:36:17.467Z,22.1
2018-06-15T07:37:18.867Z,22.2
2018-06-15T07:38:20.265Z,22.0
2018-06-15T07:39:21.667Z,22.1
2018-06-15T07:40:23.075Z,22.0
2018-06-15T07:41:24.474Z,22.0
2018-06-15T07:42:25.873Z,21.9
2018-06-15T07:43:27.270Z,22.0
2018-06-15T07:44:28.668Z,22.0
2018-06-15T07:45:30.072Z,22.2
2018-06-15T07:46:31.493Z,22.3
2018-06-15T07:47:32.914Z,22.4
2018-06-15T07:48:34.317Z,22.6
2018-06-15T07:49:35.711Z,22.6
2018-06-15T07:50:37.110Z,22.8
2018-06-15T07:51:38.513Z,22.8
2018-06-15T07:52:39.908Z,22.8
2018-06-15T07:53:41.346Z,22.8
2018-06-15T07:54:42.752Z,22.8
2018-06-15T07:55:44.151Z,22.7
2018-06-15T07:56:45.547Z,22.5
2018-06-15T07:57:46.943Z,22.4
2018-06-15T07:58:48.342Z,22.3
2018-06-15T07:59:49.741Z,22.3
2018-06-15T08:00:51.141Z,22.2
2018-06-15T08:01:52.539Z,22.2
2018-06-15T08:02:53.937Z,22.3
2018-06-15T08:03:55.336Z,22.2
2018-06-15T08:04:56.731Z,22.2
2018-06-15T08:05:58.130Z,22.2
2018-06-15T08:06:59.532Z,22.1
2018-06-15T08:08:00.941Z,22.1
2018-06-15T08:09:02.341Z,22.2
2018-06-15T08:10:03.744Z,22.2
2018-06-15T08:11:05.142Z,22.1
2018-06-15T08:12:06.543Z,22.1
2018-06-15T08:13:07.939Z,22.1
2018-06-15T08:14:09.341Z,22.2
2018-06-15T08:15:10.743Z,22.1
2018-06-15T08:16:12.141Z,22.2
2018-06-15T08:17:13.548Z,22.1
2018-06-15T08:18:14.944Z,22.2
2018-06-15T08:19:16.345Z,22.2
2018-06-15T08:20:17.742Z,22.2
2018-06-15T08:21:19.145Z,22.2
2018-06-15T08:22:20.544Z,22.3
2018-06-15T08:23:21.945Z,22.4
2018-06-15T08:24:23.360Z,22.5
2018-06-15T08:25:24.762Z,22.6
2018-06-15T08:26:26.158Z,22.7
2018-06-15T08:27:27.558Z,22.7
2018-06-15T08:28:28.960Z,22.9
2018-06-15T08:29:30.363Z,23.0
2018-06-15T08:30:31.762Z,23.0
2018-06-15T08:31:33.168Z,23.1
2018-06-15T08:32:34.634Z,23.1
2018-06-15T08:33:36.120Z,23.2
2018-06-15T08:34:37.522Z,23.1
2018-06-15T08:35:38.924Z,23.1
2018-06-15T08:36:40.323Z,23.0
2018-06-15T08:37:41.722Z,23.1
2018-06-15T08:38:43.123Z,23.1
2018-06-15T08:39:44.522Z,23.1
2018-06-15T08:40:45.927Z,23.1
2018-06-15T08:41:47.322Z,23.1
2018-06-15T08:42:48.720Z,23.1
2018-06-15T08:43:50.117Z,23.0
2018-06-15T08:44:51.520Z,23.0
2018-06-15T08:45:52.923Z,23.0
2018-06-15T08:46:54.323Z,23.0
2018-06-15T08:47:55.730Z,23.0
2018-06-15T08:48:57.125Z,23.0
2018-06-15T08:49:58.529Z,23.0
2018-06-15T08:50:59.925Z,22.9
2018-06-15T08:52:01.325Z,23.0
2018-06-15T08:53:02.726Z,23.0
2018-06-15T08:54:04.129Z,22.9
2018-06-15T08:55:05.527Z,22.9
2018-06-15T08:56:06.926Z,22.8
2018-06-15T08:57:08.328Z,22.9
2018-06-15T08:58:09.733Z,22.9
2018-06-15T08:59:11.131Z,22.8
2018-06-15T09:00:12.534Z,22.8
2018-06-15T09:01:13.934Z,22.8
2018-06-15T09:02:15.330Z,22.6
2018-06-15T09:03:16.728Z,22.7
2018-06-15T09:04:18.133Z,22.6
2018-06-15T09:05:19.528Z,22.6
2018-06-15T09:06:20.925Z,22.5
2018-06-15T09:07:22.334Z,22.5
2018-06-15T09:08:23.732Z,22.5
2018-06-15T09:09:25.130Z,22.4
2018-06-15T09:10:26.530Z,22.4
2018-06-15T09:11:27.933Z,22.3
2018-06-15T09:12:29.334Z,22.3
2018-06-15T09:13:30.738Z,22.4
2018-06-15T09:14:32.138Z,22.3
2018-06-15T09:15:33.537Z,22.3
2018-06-15T09:16:34.935Z,22.3
2018-06-15T09:17:36.335Z,22.3
2018-06-15T09:18:37.735Z,22.4
2018-06-15T09:19:39.197Z,22.7
2018-06-15T09:20:40.601Z,22.8
2018-06-15T09:21:42.002Z,23.1
2018-06-15T09:22:43.400Z,23.2
2018-06-15T09:23:44.798Z,23.1
2018-06-15T09:24:46.196Z,23.2
2018-06-15T09:25:47.596Z,23.4
2018-06-15T09:26:49.000Z,23.4
2018-06-15T09:27:50.401Z,23.2
2018-06-15T09:28:51.802Z,23.2
2018-06-15T09:29:53.201Z,23.1
2018-06-15T09:30:54.599Z,23.1
2018-06-15T09:31:56.003Z,23.4
2018-06-15T09:32:57.405Z,23.6
2018-06-15T09:33:58.808Z,23.8
2018-06-15T09:35:00.208Z,24.0
2018-06-15T09:36:01.613Z,24.0
2018-06-15T09:37:03.017Z,24.2
2018-06-15T09:38:04.415Z,24.6
2018-06-15T09:39:05.816Z,24.8
2018-06-15T09:40:07.216Z,25.0
2018-06-15T09:41:08.616Z,25.2
2018-06-15T09:42:10.016Z,25.3
2018-06-15T09:43:11.424Z,25.5
2018-06-15T09:44:12.850Z,25.3
2018-06-15T09:45:14.253Z,25.6
2018-06-15T09:46:15.718Z,25.5
2018-06-15T09:47:17.057Z,25.6
2018-06-15T09:48:18.461Z,25.7
2018-06-15T09:49:19.862Z,25.9
2018-06-15T09:50:21.262Z,26.1
2018-06-15T09:51:22.661Z,26.2
2018-06-15T09:52:24.060Z,26.3
2018-06-15T09:53:25.470Z,26.3
2018-06-15T09:54:26.866Z,26.3
2018-06-15T09:55:28.267Z,26.3
2018-06-15T09:56:29.670Z,26.4
2018-06-15T09:57:31.080Z,26.5
2018-06-15T09:58:32.479Z,26.7
2018-06-15T09:59:33.878Z,26.8
2018-06-15T10:00:35.277Z,26.8
2018-06-15T10:01:36.682Z,26.9
2018-06-15T10:02:38.084Z,27.0
2018-06-15T10:03:39.493Z,27.3
2018-06-15T10:04:40.976Z,27.6
2018-06-15T10:05:42.387Z,27.6
2018-06-15T10:06:43.789Z,27.5
2018-06-15T10:07:45.185Z,27.4
2018-06-15T10:08:46.585Z,27.3
2018-06-15T10:09:47.995Z,27.4
2018-06-15T10:10:49.403Z,27.2
2018-06-15T10:11:50.813Z,26.9
2018-06-15T10:12:52.214Z,26.8
2018-06-15T10:13:53.612Z,26.5
2018-06-15T10:14:55.011Z,26.3
2018-06-15T10:15:56.416Z,26.3
2018-06-15T10:16:57.819Z,26.1
2018-06-15T10:17:59.222Z,26.2
2018-06-15T10:19:00.636Z,26.3
2018-06-15T10:20:02.034Z,26.2
2018-06-15T10:21:03.439Z,26.0
2018-06-15T10:22:04.839Z,26.3
2018-06-15T10:23:06.239Z,26.4
2018-06-15T10:24:07.644Z,26.5
2018-06-15T10:25:09.045Z,26.4
2018-06-15T10:26:10.453Z,26.3
2018-06-15T10:27:11.863Z,26.2
2018-06-15T10:28:13.251Z,25.9
2018-06-15T10:29:14.655Z,25.7
2018-06-15T10:30:16.061Z,25.7
2018-06-15T10:31:17.457Z,25.6
2018-06-15T10:32:18.856Z,25.6
2018-06-15T10:33:20.261Z,25.4
2018-06-15T10:34:21.660Z,25.2
2018-06-15T10:35:23.065Z,25.0
2018-06-15T10:36:24.482Z,25.0
2018-06-15T10:37:25.881Z,24.8
2018-06-15T10:38:27.289Z,24.7
2018-06-15T10:39:28.713Z,24.6
2018-06-15T10:40:30.092Z,24.7
2018-06-15T10:41:31.492Z,24.6
2018-06-15T10:42:32.893Z,24.5
2018-06-15T10:43:34.289Z,24.4
2018-06-15T10:44:35.692Z,24.3
2018-06-15T10:45:37.132Z,24.2
2018-06-15T10:46:38.495Z,24.1
2018-06-15T10:47:39.896Z,24.0
2018-06-15T10:48:41.297Z,24.1
2018-06-15T10:49:42.698Z,24.4
2018-06-15T10:50:44.199Z,24.5
2018-06-15T10:51:45.600Z,24.7
2018-06-15T10:52:47.006Z,24.9
2018-06-15T10:53:48.429Z,25.2
2018-06-15T10:54:49.821Z,25.6
2018-06-15T10:55:51.221Z,25.9
2018-06-15T10:56:52.620Z,26.2
2018-06-15T10:57:54.021Z,26.4
2018-06-15T10:58:55.419Z,26.5
2018-06-15T10:59:56.823Z,26.8
2018-06-15T11:00:58.270Z,26.8
2018-06-15T11:01:59.670Z,26.9
2018-06-15T11:03:01.072Z,27.1
2018-06-15T11:04:02.472Z,26.8
2018-06-15T11:05:03.880Z,27.1
2018-06-15T11:06:05.286Z,27.4
2018-06-15T11:07:06.689Z,27.6
2018-06-15T11:08:08.093Z,27.8
2018-06-15T11:09:09.499Z,28.1
2018-06-15T11:10:10.902Z,28.5
2018-06-15T11:11:12.328Z,28.9
2018-06-15T11:12:13.742Z,29.0
2018-06-15T11:13:15.148Z,29.3
2018-06-15T11:14:16.557Z,29.5
2018-06-15T11:15:17.959Z,29.7
2018-06-15T11:16:19.363Z,30.1
2018-06-15T11:17:20.770Z,30.2
2018-06-15T11:18:22.171Z,30.5
2018-06-15T11:19:23.571Z,30.7
2018-06-15T11:20:24.976Z,30.9
2018-06-15T11:21:26.380Z,31.0
2018-06-15T11:22:27.784Z,30.9
2018-06-15T11:23:29.192Z,30.9
2018-06-15T11:24:30.645Z,30.9
2018-06-15T11:25:32.050Z,31.1
2018-06-15T11:26:33.455Z,30.9
2018-06-15T11:27:34.866Z,30.9
2018-06-15T11:28:36.271Z,31.0
2018-06-15T11:29:37.682Z,31.3
2018-06-15T11:30:39.097Z,31.4
2018-06-15T11:31:40.507Z,31.3
2018-06-15T11:32:41.913Z,31.5
2018-06-15T11:33:43.319Z,31.5
2018-06-15T11:34:44.725Z,31.6
2018-06-15T11:35:46.213Z,31.8
2018-06-15T11:36:47.642Z,31.8
2018-06-15T11:37:49.054Z,31.7
2018-06-15T11:38:50.459Z,31.9
2018-06-15T11:39:51.868Z,32.0
2018-06-15T11:40:53.275Z,32.2
2018-06-15T11:41:54.688Z,32.3
2018-06-15T11:42:56.090Z,32.1
2018-06-15T11:43:57.500Z,32.3
2018-06-15T11:44:58.906Z,32.4
2018-06-15T11:46:00.317Z,32.6
2018-06-15T11:47:01.722Z,32.7
2018-06-15T11:48:03.125Z,32.8
2018-06-15T11:49:04.534Z,32.8
2018-06-15T11:50:05.945Z,32.6
2018-06-15T11:51:07.358Z,32.5
2018-06-15T11:52:08.831Z,32.6
2018-06-15T11:53:10.237Z,32.8
2018-06-15T11:54:11.644Z,33.0
2018-06-15T11:55:13.048Z,32.9
2018-06-15T11:56:14.456Z,32.2
2018-06-15T11:57:15.864Z,31.8
2018-06-15T11:58:17.274Z,31.5
2018-06-15T11:59:18.683Z,31.7
2018-06-15T12:00:20.114Z,32.0
2018-06-15T12:01:21.521Z,32.2
2018-06-15T12:02:22.927Z,32.1
2018-06-15T12:03:24.340Z,32.3
2018-06-15T12:04:25.744Z,32.5
2018-06-15T12:05:27.150Z,32.6
2018-06-15T12:06:28.567Z,31.7
2018-06-15T12:07:29.971Z,31.5
2018-06-15T12:08:31.376Z,31.5
2018-06-15T12:09:32.784Z,31.6
2018-06-15T12:10:34.197Z,31.7
2018-06-15T12:11:35.728Z,31.5
2018-06-15T12:12:37.132Z,31.3
2018-06-15T12:13:38.540Z,31.1
2018-06-15T12:14:39.946Z,30.7
2018-06-15T12:15:41.355Z,30.5
2018-06-15T12:16:42.782Z,30.3
2018-06-15T12:17:44.191Z,30.2
2018-06-15T12:18:45.595Z,30.1
2018-06-15T12:19:47.003Z,30.1
2018-06-15T12:20:48.414Z,30.0
2018-06-15T12:21:49.883Z,30.1
2018-06-15T12:22:51.280Z,29.9
2018-06-15T12:23:52.681Z,29.8
2018-06-15T12:24:54.088Z,29.7
2018-06-15T12:25:55.493Z,29.7
2018-06-15T12:26:56.900Z,29.6
2018-06-15T12:27:58.308Z,29.5
2018-06-15T12:28:59.708Z,29.5
2018-06-15T12:30:01.115Z,29.3
2018-06-15T12:31:02.518Z,29.3
2018-06-15T12:32:03.922Z,29.2
2018-06-15T12:33:05.327Z,29.0
2018-06-15T12:34:06.777Z,28.9
2018-06-15T12:35:08.176Z,28.9
2018-06-15T12:36:09.576Z,28.7
2018-06-15T12:37:10.981Z,28.7
2018-06-15T12:38:12.384Z,28.5
2018-06-15T12:39:13.823Z,28.7
2018-06-15T12:40:15.224Z,29.1
2018-06-15T12:41:16.643Z,29.2
2018-06-15T12:42:18.051Z,29.3
2018-06-15T12:43:19.456Z,29.3
2018-06-15T12:44:20.862Z,29.3
2018-06-15T12:45:22.263Z,29.3
2018-06-15T12:46:23.668Z,29.8
2018-06-15T12:47:25.074Z,30.0
2018-06-15T12:48:26.477Z,29.7
2018-06-15T12:49:27.889Z,29.4
2018-06-15T12:50:29.290Z,29.1
2018-06-15T12:51:30.726Z,28.9
2018-06-15T12:52:32.137Z,28.9
2018-06-15T12:53:33.544Z,29.2
2018-06-15T12:54:34.945Z,29.5
2018-06-15T12:55:36.348Z,29.5
2018-06-15T12:56:37.756Z,29.3
2018-06-15T12:57:39.159Z,29.1
2018-06-15T12:58:40.567Z,28.9
2018-06-15T12:59:41.974Z,28.7
2018-06-15T13:00:43.380Z,28.5
2018-06-15T13:01:44.784Z,28.3
2018-06-15T13:02:46.189Z,28.1
2018-06-15T13:03:47.593Z,28.1
2018-06-15T13:04:48.999Z,28.0
2018-06-15T13:05:50.399Z,28.0
2018-06-15T13:06:51.879Z,28.0
2018-06-15T13:07:53.325Z,28.0
2018-06-15T13:08:54.731Z,27.8
2018-06-15T13:09:56.146Z,27.7
2018-06-15T13:10:57.598Z,27.5
2018-06-15T13:11:58.999Z,27.5
2018-06-15T13:13:00.400Z,27.4
2018-06-15T13:14:01.805Z,27.4
2018-06-15T13:15:03.209Z,27.4
2018-06-15T13:16:04.610Z,27.4
2018-06-15T13:17:06.017Z,27.4
2018-06-15T13:18:07.426Z,27.8
2018-06-15T13:19:08.829Z,28.2
2018-06-15T13:20:10.233Z,28.6
2018-06-15T13:21:11.637Z,29.0
2018-06-15T13:22:13.053Z,29.3
2018-06-15T13:23:14.456Z,29.9
2018-06-15T13:24:15.871Z,30.3
2018-06-15T13:25:17.275Z,30.5
2018-06-15T13:26:18.677Z,30.9
2018-06-15T13:27:20.081Z,31.0
2018-06-15T13:28:21.480Z,30.9
2018-06-15T13:29:22.884Z,30.6
2018-06-15T13:30:24.290Z,30.5
2018-06-15T13:31:25.696Z,30.2
2018-06-15T13:32:27.098Z,30.0
2018-06-15T13:33:28.501Z,29.7
2018-06-15T13:34:29.909Z,29.5
2018-06-15T13:35:31.308Z,29.4
2018-06-15T13:36:32.710Z,29.3
2018-06-15T13:37:34.113Z,29.1